Time;durP1;ratioP1;P1;durP2;ratioP2;P2;SDS_P1;SDS_P2;PMS_P1;PMS_P2;Temp;Humidity;BMP_temperature;BMP_pressure;BME280_temperature;BME280_humidity;BME280_pressure;Samples;Min_cycle;Max_cycle;Signal;HPM_P1;HPM_P2
2022/04/02 00:00:19;;;;;;;1.10;1.00;;;18.40;40.30;;;;;;5053822;28;20218;-92
2022/04/02 00:02:47;;;;;;;1.03;1.00;;;18.50;40.40;;;;;;5054973;28;20577;-92
2022/04/02 00:05:13;;;;;;;1.20;1.00;;;18.40;40.70;;;;;;5054806;28;20191;-92
2022/04/02 00:07:38;;;;;;;0.90;0.90;;;18.30;40.40;;;;;;5054375;28;20174;-92
2022/04/02 00:10:07;;;;;;;1.60;1.13;;;18.30;40.50;;;;;;5054268;28;20283;-92
2022/04/02 00:12:34;;;;;;;1.23;1.00;;;18.30;40.50;;;;;;5054504;28;20196;-92
2022/04/02 00:15:00;;;;;;;1.23;1.03;;;18.40;40.60;;;;;;5055842;28;20169;-93
2022/04/02 00:17:25;;;;;;;1.20;1.10;;;18.40;40.50;;;;;;5056245;28;20166;-94
2022/04/02 00:19:52;;;;;;;1.27;1.10;;;18.30;40.50;;;;;;5053996;28;20183;-94
2022/04/02 00:22:18;;;;;;;1.70;1.20;;;18.20;40.50;;;;;;5054854;28;20560;-94
2022/04/02 00:24:44;;;;;;;1.30;1.00;;;18.20;40.60;;;;;;5054433;28;20205;-94
2022/04/02 00:27:09;;;;;;;1.43;1.10;;;18.20;40.70;;;;;;5054829;28;20179;-94
2022/04/02 00:29:38;;;;;;;1.40;1.10;;;18.10;40.60;;;;;;5055267;28;20173;-93
2022/04/02 00:32:05;;;;;;;1.80;1.43;;;18.20;40.60;;;;;;5055081;28;20206;-94
2022/04/02 00:34:34;;;;;;;1.30;1.20;;;18.10;40.60;;;;;;5054640;28;20425;-94
2022/04/02 00:36:59;;;;;;;1.20;1.10;;;18.10;40.60;;;;;;5055289;28;20170;-94
2022/04/02 00:39:25;;;;;;;2.13;1.20;;;18.00;40.70;;;;;;5054697;28;20182;-94
2022/04/02 00:41:51;;;;;;;1.10;1.00;;;17.90;40.70;;;;;;5055065;28;20230;-94
2022/04/02 00:44:17;;;;;;;1.23;1.13;;;17.80;40.70;;;;;;5055556;28;20534;-94
2022/04/02 00:46:44;;;;;;;1.60;1.10;;;17.80;40.80;;;;;;5056385;28;20184;-94
2022/04/02 00:49:11;;;;;;;1.03;1.00;;;17.70;40.90;;;;;;5055248;28;20179;-94
2022/04/02 00:51:42;;;;;;;1.10;1.00;;;17.70;40.90;;;;;;5054755;28;20238;-93
2022/04/02 00:54:10;;;;;;;1.20;1.00;;;17.70;40.90;;;;;;5054922;28;20234;-93
2022/04/02 00:56:37;;;;;;;1.27;1.10;;;17.70;40.90;;;;;;5053927;28;20170;-93
2022/04/02 00:59:03;;;;;;;1.20;1.07;;;17.70;41.00;;;;;;5053954;28;20174;-93
2022/04/02 01:01:31;;;;;;;1.73;1.10;;;17.70;41.00;;;;;;5053618;28;20192;-93
2022/04/02 01:04:02;;;;;;;1.03;1.00;;;17.60;41.00;;;;;;5053916;28;20178;-93
2022/04/02 01:06:32;;;;;;;1.13;1.00;;;17.60;41.00;;;;;;5053981;28;20186;-93
2022/04/02 01:08:58;;;;;;;1.63;1.20;;;17.50;41.10;;;;;;5054147;28;20183;-92
2022/04/02 01:11:34;;;;;;;1.80;1.13;;;17.50;41.10;;;;;;5053967;28;20306;-93
2022/04/02 01:13:59;;;;;;;0.93;0.90;;;17.50;41.20;;;;;;5054006;28;20169;-93
2022/04/02 01:16:27;;;;;;;1.17;0.90;;;17.40;41.20;;;;;;5053141;28;20199;-93
2022/04/02 01:18:52;;;;;;;0.90;0.90;;;17.40;41.20;;;;;;5053149;28;20187;-93
2022/04/02 01:21:18;;;;;;;1.00;0.90;;;17.30;41.30;;;;;;5053351;28;20625;-93
2022/04/02 01:23:44;;;;;;;1.20;1.10;;;17.30;41.30;;;;;;5054344;28;20182;-92
2022/04/02 01:26:10;;;;;;;1.70;1.00;;;17.30;41.40;;;;;;5053932;28;20174;-93
2022/04/02 01:28:36;;;;;;;1.20;1.03;;;17.30;41.40;;;;;;5053847;28;20180;-93
2022/04/02 01:31:06;;;;;;;0.80;0.80;;;17.30;41.40;;;;;;5053168;28;20462;-93
2022/04/02 01:33:33;;;;;;;1.10;1.00;;;17.20;41.40;;;;;;5053119;28;20263;-93
2022/04/02 01:36:04;;;;;;;1.10;1.00;;;17.30;41.40;;;;;;5052746;28;20174;-93
2022/04/02 01:38:30;;;;;;;1.87;1.10;;;17.20;41.40;;;;;;5052808;28;20252;-93
2022/04/02 01:40:57;;;;;;;1.27;1.07;;;17.20;41.50;;;;;;5050734;28;20180;-93
2022/04/02 01:43:24;;;;;;;1.17;1.00;;;17.20;41.50;;;;;;5051545;28;20532;-93
2022/04/02 01:45:56;;;;;;;1.30;0.93;;;17.20;41.60;;;;;;5049978;28;20183;-93
2022/04/02 01:48:22;;;;;;;1.27;1.17;;;17.20;41.60;;;;;;5052226;28;20168;-93
2022/04/02 01:50:49;;;;;;;3.07;1.20;;;17.10;41.50;;;;;;5052338;28;20207;-93
2022/04/02 01:53:14;;;;;;;2.23;1.00;;;17.10;41.50;;;;;;5052821;28;20204;-93
2022/04/02 01:55:40;;;;;;;2.30;1.13;;;17.10;41.60;;;;;;5051984;28;20224;-93
2022/04/02 01:58:06;;;;;;;1.60;1.00;;;17.10;41.60;;;;;;5053155;28;20559;-93
2022/04/02 02:00:32;;;;;;;1.10;1.00;;;17.10;41.60;;;;;;5052384;28;20190;-92
2022/04/02 02:02:58;;;;;;;1.10;1.00;;;17.00;41.60;;;;;;5051618;28;20165;-93
2022/04/02 02:05:23;;;;;;;1.07;0.97;;;17.00;41.60;;;;;;5052827;28;20165;-93
2022/04/02 02:07:50;;;;;;;1.37;1.07;;;17.00;41.60;;;;;;5053814;28;20177;-92
2022/04/02 02:10:16;;;;;;;1.10;1.00;;;16.90;41.70;;;;;;5053531;28;20421;-93
2022/04/02 02:12:41;;;;;;;1.13;1.03;;;16.80;41.70;;;;;;5054394;28;20207;-93
2022/04/02 02:15:17;;;;;;;1.13;1.03;;;16.90;41.80;;;;;;5053001;28;20172;-93
2022/04/02 02:17:51;;;;;;;0.97;0.90;;;16.80;41.80;;;;;;5057228;28;20174;-93
2022/04/02 02:20:18;;;;;;;1.20;1.00;;;16.80;41.80;;;;;;5055929;28;20175;-92
2022/04/02 02:22:45;;;;;;;1.17;1.00;;;16.70;41.90;;;;;;5055733;28;20177;-93
2022/04/02 02:25:14;;;;;;;1.10;1.00;;;16.60;41.90;;;;;;5056498;28;20175;-93
2022/04/02 02:27:41;;;;;;;1.33;0.90;;;16.60;42.00;;;;;;5057281;28;20291;-93
2022/04/02 02:30:09;;;;;;;2.00;1.10;;;16.50;42.10;;;;;;5058272;28;20515;-93
2022/04/02 02:32:36;;;;;;;1.00;0.83;;;16.50;42.10;;;;;;5057815;28;20307;-93
2022/04/02 02:38:08;;;;;;;0.90;0.90;;;16.40;42.20;;;;;;5058503;28;20218;-93
2022/04/02 02:40:35;;;;;;;1.53;0.90;;;16.40;42.20;;;;;;5056966;28;20168;-94
2022/04/02 02:43:01;;;;;;;2.47;1.07;;;16.40;42.70;;;;;;5057602;28;20187;-93
2022/04/02 02:45:27;;;;;;;1.17;1.07;;;16.30;42.30;;;;;;5056573;28;20172;-93
2022/04/02 02:47:54;;;;;;;2.17;1.00;;;16.30;42.20;;;;;;5057425;28;20172;-92
2022/04/02 02:50:20;;;;;;;0.80;0.80;;;16.30;42.30;;;;;;5057750;28;20191;-93
2022/04/02 02:52:46;;;;;;;1.87;1.00;;;16.20;42.30;;;;;;5057569;28;20204;-93
2022/04/02 02:55:12;;;;;;;1.43;0.90;;;16.20;42.30;;;;;;5057526;28;20465;-93
2022/04/02 02:57:39;;;;;;;1.13;0.83;;;16.20;42.30;;;;;;5056447;28;20178;-93
2022/04/02 03:00:07;;;;;;;1.03;0.90;;;16.20;42.40;;;;;;5056651;28;20426;-93
2022/04/02 03:02:33;;;;;;;1.27;1.17;;;16.20;42.30;;;;;;5056953;28;20234;-93
2022/04/02 03:04:59;;;;;;;1.40;1.07;;;16.40;42.20;;;;;;5057567;28;20187;-93
2022/04/02 03:07:25;;;;;;;1.10;1.00;;;16.60;41.90;;;;;;5056478;28;20230;-93
2022/04/02 03:09:51;;;;;;;1.27;1.10;;;16.60;41.80;;;;;;5057907;28;20210;-93
2022/04/02 03:12:17;;;;;;;0.90;0.90;;;16.60;41.70;;;;;;5057125;28;20243;-93
2022/04/02 03:14:43;;;;;;;1.03;0.90;;;16.60;41.70;;;;;;5056390;28;20283;-93
2022/04/02 03:17:09;;;;;;;1.30;0.87;;;16.60;41.80;;;;;;5057151;28;20180;-93
2022/04/02 03:19:35;;;;;;;1.10;1.00;;;16.60;41.70;;;;;;5056747;28;20510;-93
2022/04/02 03:22:01;;;;;;;0.80;0.80;;;16.50;41.70;;;;;;5056023;28;20576;-93
2022/04/02 03:24:27;;;;;;;1.10;1.00;;;16.50;41.70;;;;;;5056240;28;20180;-92
2022/04/02 03:26:53;;;;;;;0.93;0.80;;;16.50;41.70;;;;;;5056688;28;20570;-93
2022/04/02 03:29:20;;;;;;;1.00;0.90;;;16.50;41.70;;;;;;5055393;28;20276;-93
2022/04/02 03:31:46;;;;;;;1.30;0.90;;;16.50;41.70;;;;;;5056486;28;20207;-93
2022/04/02 03:34:12;;;;;;;0.70;0.70;;;16.50;41.70;;;;;;5056306;28;20563;-93
2022/04/02 03:36:38;;;;;;;1.50;1.13;;;16.50;41.70;;;;;;5055524;28;20204;-92
2022/04/02 03:39:03;;;;;;;1.33;1.00;;;16.40;41.80;;;;;;5054626;28;20204;-92
2022/04/02 03:41:29;;;;;;;1.30;1.20;;;16.30;41.80;;;;;;5054862;28;20502;-91
2022/04/02 03:43:56;;;;;;;1.10;0.90;;;16.40;41.80;;;;;;5054737;28;20180;-92
2022/04/02 03:49:06;;;;;;;1.23;0.80;;;16.20;41.80;;;;;;5055123;28;20231;-92
2022/04/02 03:51:32;;;;;;;0.93;0.80;;;16.20;41.80;;;;;;5055629;28;20614;-91
2022/04/02 03:53:59;;;;;;;1.23;0.80;;;16.10;41.90;;;;;;5055897;28;20168;-91
2022/04/02 03:56:25;;;;;;;0.90;0.80;;;16.10;41.80;;;;;;5054813;28;20168;-92
2022/04/02 03:58:51;;;;;;;0.87;0.80;;;16.10;41.80;;;;;;5055514;28;20271;-91
2022/04/02 04:01:18;;;;;;;0.80;0.80;;;16.10;41.90;;;;;;5054923;28;20273;-91
2022/04/02 04:03:44;;;;;;;0.90;0.90;;;16.00;41.90;;;;;;5054439;28;20201;-91
2022/04/02 04:06:09;;;;;;;1.33;1.00;;;16.00;41.90;;;;;;5054781;28;20310;-92
2022/04/02 04:08:39;;;;;;;1.00;0.90;;;16.00;41.90;;;;;;5056062;28;20176;-92
2022/04/02 04:11:05;;;;;;;1.10;0.80;;;15.90;41.90;;;;;;5054887;28;20211;-92
2022/04/02 04:13:30;;;;;;;1.43;0.90;;;16.10;41.80;;;;;;5054902;28;20188;-92
2022/04/02 04:15:57;;;;;;;1.20;0.90;;;16.20;41.70;;;;;;5052877;28;20188;-92
2022/04/02 04:18:23;;;;;;;1.20;0.90;;;16.30;41.60;;;;;;5055056;28;20171;-92
2022/04/02 04:20:49;;;;;;;1.20;0.90;;;16.30;41.40;;;;;;5053530;28;20173;-92
2022/04/02 04:23:15;;;;;;;1.00;0.87;;;16.40;41.40;;;;;;5053907;28;20533;-92
2022/04/02 04:25:41;;;;;;;1.00;0.90;;;16.40;41.30;;;;;;5053760;28;20578;-92
2022/04/02 04:28:06;;;;;;;1.03;1.00;;;16.40;41.30;;;;;;5055386;28;20175;-92
2022/04/02 04:30:34;;;;;;;1.43;0.90;;;16.30;41.30;;;;;;5054333;28;20180;-92
2022/04/02 04:32:59;;;;;;;1.27;1.10;;;16.30;41.30;;;;;;5053234;28;20206;-92
2022/04/02 04:35:25;;;;;;;0.80;0.80;;;16.20;41.30;;;;;;5054502;28;20264;-92
2022/04/02 04:37:52;;;;;;;1.40;0.90;;;16.20;41.20;;;;;;5052838;28;20632;-92
2022/04/02 04:40:18;;;;;;;1.23;0.97;;;16.20;41.20;;;;;;5054171;28;20206;-91
2022/04/02 04:42:44;;;;;;;1.73;0.90;;;16.20;41.20;;;;;;5053409;28;20179;-92
2022/04/02 04:45:09;;;;;;;1.00;0.90;;;16.20;41.20;;;;;;5053986;28;20187;-92
2022/04/02 04:47:35;;;;;;;1.17;0.90;;;16.10;41.20;;;;;;5054154;28;20172;-92
2022/04/02 04:50:02;;;;;;;1.43;1.00;;;16.10;41.30;;;;;;5054708;28;20167;-93
2022/04/02 04:52:28;;;;;;;1.20;1.00;;;16.00;41.30;;;;;;5053764;28;20399;-93
2022/04/02 04:54:54;;;;;;;1.37;1.13;;;15.90;41.30;;;;;;5055292;28;20274;-92
2022/04/02 04:57:19;;;;;;;1.10;1.00;;;15.90;41.40;;;;;;5054010;28;20269;-92
2022/04/02 04:59:46;;;;;;;1.30;1.13;;;15.80;41.40;;;;;;5054972;28;20241;-92
2022/04/02 05:02:12;;;;;;;1.00;0.80;;;15.80;41.80;;;;;;5053195;28;20328;-92
2022/04/02 05:04:38;;;;;;;1.07;0.90;;;15.80;41.40;;;;;;5053802;28;20176;-92
2022/04/02 05:07:04;;;;;;;1.33;1.00;;;15.70;41.50;;;;;;5053253;28;20304;-94
2022/04/02 05:09:30;;;;;;;1.10;0.83;;;15.60;41.50;;;;;;5053688;28;20170;-92
2022/04/02 05:11:57;;;;;;;1.07;0.87;;;15.60;41.50;;;;;;5053661;28;20200;-92
2022/04/02 05:14:26;;;;;;;1.20;1.10;;;15.50;41.50;;;;;;5054139;28;20175;-92
2022/04/02 05:16:52;;;;;;;1.87;1.10;;;15.50;41.50;;;;;;5053855;28;20261;-92
2022/04/02 05:19:20;;;;;;;1.30;0.90;;;15.50;41.50;;;;;;5052716;28;20168;-92
2022/04/02 05:21:46;;;;;;;1.10;1.00;;;15.40;41.50;;;;;;5053036;28;20227;-92
2022/04/02 05:24:11;;;;;;;1.43;1.13;;;15.40;41.60;;;;;;5054289;28;20286;-92
2022/04/02 05:26:37;;;;;;;1.30;1.10;;;15.30;41.60;;;;;;5053370;28;20182;-92
2022/04/02 05:29:03;;;;;;;2.17;1.10;;;15.30;41.60;;;;;;5053326;28;20189;-92
2022/04/02 05:31:29;;;;;;;1.03;0.97;;;15.20;41.60;;;;;;5052977;28;20469;-92
2022/04/02 05:33:54;;;;;;;1.70;1.20;;;15.20;41.70;;;;;;5053682;28;20187;-92
2022/04/02 05:36:20;;;;;;;1.00;0.90;;;15.10;41.70;;;;;;5052815;28;20175;-92
2022/04/02 05:38:46;;;;;;;1.50;1.00;;;15.30;41.70;;;;;;5052681;28;20172;-92
2022/04/02 05:41:12;;;;;;;1.23;0.97;;;17.80;40.30;;;;;;5052631;28;20273;-92
2022/04/02 05:43:38;;;;;;;1.83;1.00;;;18.20;38.70;;;;;;5051827;28;20307;-93
2022/04/02 05:46:03;;;;;;;1.20;0.80;;;18.40;38.30;;;;;;5052679;28;20171;-94
2022/04/02 05:48:31;;;;;;;1.13;0.90;;;18.50;38.10;;;;;;5052137;28;20172;-91
2022/04/02 05:50:57;;;;;;;1.00;0.90;;;18.90;37.90;;;;;;5053892;28;20191;-93
2022/04/02 05:53:23;;;;;;;2.00;0.90;;;19.10;37.60;;;;;;5056807;28;20209;-92
2022/04/02 05:55:49;;;;;;;1.43;1.10;;;19.40;37.30;;;;;;5056403;28;20456;-93
2022/04/02 05:58:16;;;;;;;1.93;1.30;;;19.70;37.10;;;;;;5056388;28;20186;-93
2022/04/02 06:00:42;;;;;;;1.40;0.80;;;20.10;36.80;;;;;;5055725;28;20665;-92
2022/04/02 06:03:08;;;;;;;0.87;0.83;;;20.40;36.50;;;;;;5056421;28;20261;-93
2022/04/02 06:05:35;;;;;;;1.63;1.20;;;20.70;36.20;;;;;;5055534;28;20170;-93
2022/04/02 06:08:01;;;;;;;1.40;1.10;;;20.80;36.00;;;;;;5055564;28;20182;-92
2022/04/02 06:10:27;;;;;;;0.77;0.77;;;21.00;35.80;;;;;;5055062;28;20183;-93
2022/04/02 06:12:53;;;;;;;1.70;0.90;;;21.10;35.70;;;;;;5055965;28;20308;-93
2022/04/02 06:15:19;;;;;;;1.00;0.90;;;21.20;35.60;;;;;;5055396;28;20182;-93
2022/04/02 06:17:45;;;;;;;1.10;0.90;;;21.50;35.60;;;;;;5055863;28;20571;-92
2022/04/02 06:20:11;;;;;;;1.10;0.90;;;21.70;35.40;;;;;;5056067;28;20267;-93
2022/04/02 06:22:36;;;;;;;1.13;0.97;;;22.10;35.20;;;;;;5054988;28;20267;-92
2022/04/02 06:25:03;;;;;;;0.93;0.90;;;22.20;35.00;;;;;;5055739;28;20185;-92
2022/04/02 06:27:29;;;;;;;1.40;0.90;;;22.40;34.90;;;;;;5056163;28;20608;-92
2022/04/02 06:29:58;;;;;;;0.90;0.80;;;22.70;34.70;;;;;;5055539;28;20190;-93
2022/04/02 06:32:25;;;;;;;1.10;1.00;;;22.90;34.60;;;;;;5054571;28;20208;-93
2022/04/02 06:34:51;;;;;;;1.20;0.93;;;23.10;34.40;;;;;;5054946;28;20202;-93
2022/04/02 06:37:16;;;;;;;1.30;1.03;;;23.20;34.30;;;;;;5054737;28;20442;-92
2022/04/02 06:39:42;;;;;;;1.10;1.00;;;23.20;34.30;;;;;;5055796;28;20171;-93
2022/04/02 06:42:08;;;;;;;2.17;1.10;;;23.30;34.40;;;;;;5053895;28;20487;-93
2022/04/02 06:44:33;;;;;;;0.80;0.80;;;23.50;34.30;;;;;;5054430;28;20173;-93
2022/04/02 06:47:00;;;;;;;1.20;1.00;;;23.60;34.10;;;;;;5054141;28;20187;-92
2022/04/02 06:49:26;;;;;;;1.70;1.10;;;23.90;34.00;;;;;;5053859;28;20176;-93
2022/04/02 06:51:51;;;;;;;1.77;1.10;;;24.00;33.90;;;;;;5053660;28;20206;-92
2022/04/02 06:54:17;;;;;;;1.47;0.90;;;23.90;34.00;;;;;;5054519;28;20171;-94
2022/04/02 06:56:44;;;;;;;1.90;1.00;;;23.70;34.00;;;;;;5054571;28;20156;-95
2022/04/02 06:59:10;;;;;;;1.10;0.90;;;23.60;34.10;;;;;;5055223;28;20258;-92
2022/04/02 07:01:35;;;;;;;1.00;0.90;;;23.50;34.20;;;;;;5053778;28;20180;-91
2022/04/02 07:04:01;;;;;;;1.30;1.00;;;23.40;34.30;;;;;;5052910;28;20171;-91
2022/04/02 07:06:27;;;;;;;1.17;0.90;;;23.10;34.40;;;;;;5054982;28;20671;-92
2022/04/02 07:08:53;;;;;;;1.30;1.10;;;22.90;34.50;;;;;;5053800;28;20172;-91
2022/04/02 07:11:18;;;;;;;2.10;1.20;;;22.60;34.70;;;;;;5054344;28;20415;-92
2022/04/02 07:13:44;;;;;;;2.53;1.20;;;22.50;35.00;;;;;;5053282;28;20375;-92
2022/04/02 07:16:10;;;;;;;1.33;1.00;;;22.10;35.20;;;;;;5055137;28;20201;-92
2022/04/02 07:18:43;;;;;;;1.20;1.10;;;21.80;35.60;;;;;;5053859;28;20182;-92
2022/04/02 07:21:11;;;;;;;1.40;1.10;;;21.50;35.90;;;;;;5053320;28;20177;-92
2022/04/02 07:23:41;;;;;;;1.70;1.20;;;21.00;36.20;;;;;;5053624;28;20544;-92
2022/04/02 07:26:07;;;;;;;1.63;1.07;;;20.90;36.60;;;;;;5053633;28;20175;-91
2022/04/02 07:28:33;;;;;;;2.03;1.30;;;20.60;36.90;;;;;;5055552;28;20211;-93
2022/04/02 07:30:59;;;;;;;4.07;1.20;;;20.40;37.20;;;;;;5054088;28;20230;-93
2022/04/02 07:33:25;;;;;;;4.10;1.30;;;20.30;37.40;;;;;;5054859;28;20236;-93
2022/04/02 07:35:58;;;;;;;3.80;1.50;;;20.40;37.40;;;;;;5055049;28;20315;-93
2022/04/02 07:38:58;;;;;;;2.53;1.10;;;20.70;37.10;;;;;;5052042;28;20176;-93
2022/04/02 07:41:42;;;;;;;4.60;1.40;;;21.40;36.70;;;;;;5053208;28;20176;-93
2022/04/02 07:44:36;;;;;;;2.37;1.40;;;22.00;36.00;;;;;;5052285;28;20185;-93
2022/04/02 07:47:03;;;;;;;1.70;1.00;;;22.70;35.40;;;;;;5053144;28;20181;-93
2022/04/02 07:49:30;;;;;;;2.70;1.23;;;23.40;34.90;;;;;;5054180;28;20183;-93
2022/04/02 07:51:56;;;;;;;3.20;1.20;;;23.70;34.40;;;;;;5053599;28;20593;-93
2022/04/02 07:54:27;;;;;;;3.60;1.20;;;24.20;34.20;;;;;;5053840;28;20231;-93
2022/04/02 07:57:02;;;;;;;2.80;1.30;;;24.00;34.10;;;;;;5054212;28;20290;-93
2022/04/02 07:59:38;;;;;;;2.27;1.20;;;24.00;34.20;;;;;;5052499;28;20322;-93
2022/04/02 08:02:04;;;;;;;2.20;1.40;;;23.70;34.40;;;;;;5052087;28;20178;-93
2022/04/02 08:04:30;;;;;;;2.00;1.30;;;24.00;34.30;;;;;;5051642;28;20199;-93
2022/04/02 08:06:57;;;;;;;1.27;1.10;;;24.20;34.20;;;;;;5051795;28;20176;-93
2022/04/02 08:09:26;;;;;;;1.57;1.40;;;24.30;34.10;;;;;;5052478;28;20378;-94
2022/04/02 08:11:52;;;;;;;3.03;1.50;;;23.90;34.10;;;;;;5051643;28;20221;-93
2022/04/02 08:14:18;;;;;;;5.00;1.70;;;23.90;34.30;;;;;;5052473;28;20180;-93
2022/04/02 08:16:44;;;;;;;3.70;1.50;;;23.90;34.30;;;;;;5050429;28;20676;-93
2022/04/02 08:19:11;;;;;;;3.73;1.27;;;23.90;34.30;;;;;;5050308;28;20547;-93
2022/04/02 08:21:37;;;;;;;3.13;1.50;;;23.80;34.40;;;;;;5052341;28;20547;-93
2022/04/02 08:24:03;;;;;;;5.13;1.60;;;23.60;34.50;;;;;;5051229;28;20318;-93
2022/04/02 08:26:51;;;;;;;8.10;1.90;;;23.40;34.60;;;;;;5051245;28;20176;-93
2022/04/02 08:29:28;;;;;;;3.07;1.53;;;23.20;34.90;;;;;;5050163;28;20175;-93
2022/04/02 08:32:22;;;;;;;2.13;1.20;;;22.80;35.10;;;;;;5049205;28;20207;-93
2022/04/02 08:35:08;;;;;;;3.33;1.47;;;22.60;35.20;;;;;;5049245;28;20185;-94
2022/04/02 08:38:12;;;;;;;2.73;1.70;;;22.40;35.40;;;;;;5050212;28;20184;-94
2022/04/02 08:41:03;;;;;;;2.97;1.73;;;22.20;35.60;;;;;;5018979;28;20195;-94
2022/04/02 08:44:01;;;;;;;3.43;1.50;;;22.00;35.80;;;;;;5048851;28;20191;-94
2022/04/02 08:46:50;;;;;;;2.03;1.20;;;21.80;35.90;;;;;;5049320;28;20183;-94
2022/04/02 08:49:37;;;;;;;2.13;1.50;;;21.80;36.00;;;;;;5050383;28;20182;-93
2022/04/02 08:52:14;;;;;;;1.93;1.47;;;21.90;36.00;;;;;;5050403;28;20215;-93
2022/04/02 08:54:57;;;;;;;2.33;1.67;;;22.10;35.90;;;;;;5049641;28;20180;-94
2022/04/02 08:57:32;;;;;;;1.80;1.33;;;22.20;35.70;;;;;;5050120;28;20382;-93
2022/04/02 09:00:05;;;;;;;2.57;1.73;;;22.40;35.50;;;;;;5049876;28;20803;-93
2022/04/02 09:02:59;;;;;;;2.50;1.50;;;22.80;35.20;;;;;;5050358;28;20181;-92
2022/04/02 09:06:04;;;;;;;1.63;1.30;;;23.00;35.00;;;;;;5049925;28;20282;-92
2022/04/02 09:08:51;;;;;;;1.37;1.20;;;22.70;35.00;;;;;;5017209;28;20184;-92
2022/04/02 09:11:51;;;;;;;2.27;1.50;;;22.30;35.30;;;;;;5048800;28;20312;-91
2022/04/02 09:14:54;;;;;;;2.60;1.43;;;21.60;35.80;;;;;;5048073;28;20192;-91
2022/04/02 09:17:35;;;;;;;1.70;1.40;;;21.30;36.20;;;;;;5047686;28;20174;-91
2022/04/02 09:20:07;;;;;;;1.83;1.23;;;21.10;36.50;;;;;;5048087;28;20167;-91
2022/04/02 09:22:54;;;;;;;1.90;1.30;;;21.40;36.40;;;;;;5049176;28;20177;-91
2022/04/02 09:25:57;;;;;;;1.97;1.40;;;22.30;35.80;;;;;;5047924;28;20440;-90
2022/04/02 09:28:42;;;;;;;1.83;1.30;;;23.20;34.90;;;;;;5049023;28;20190;-90
2022/04/02 09:31:34;;;;;;;2.30;1.60;;;23.50;34.60;;;;;;5047833;28;20172;-90
2022/04/02 09:34:25;;;;;;;1.87;1.40;;;24.10;34.20;;;;;;5047749;28;20184;-90
2022/04/02 09:37:22;;;;;;;1.57;1.40;;;24.50;33.80;;;;;;5049996;28;20172;-92
2022/04/02 09:40:11;;;;;;;3.57;1.60;;;24.80;33.50;;;;;;5048283;28;20176;-92
2022/04/02 09:42:44;;;;;;;1.70;1.50;;;24.90;33.40;;;;;;5048132;28;20229;-92
2022/04/02 09:45:12;;;;;;;2.20;1.33;;;24.70;33.40;;;;;;5046323;28;20175;-91
2022/04/02 09:47:47;;;;;;;2.00;1.10;;;24.90;33.90;;;;;;5046407;28;20273;-92
2022/04/02 09:50:20;;;;;;;1.93;1.33;;;24.70;33.40;;;;;;5046415;28;20171;-93
2022/04/02 09:52:58;;;;;;;1.63;1.50;;;24.80;33.40;;;;;;5048187;28;20206;-92
2022/04/02 09:55:29;;;;;;;2.53;1.43;;;24.60;33.50;;;;;;5047977;28;20203;-92
2022/04/02 09:58:07;;;;;;;1.60;1.40;;;24.20;33.80;;;;;;5048450;28;20280;-92
2022/04/02 10:01:08;;;;;;;2.50;1.50;;;24.20;33.90;;;;;;5052865;28;20167;-91
2022/04/02 10:03:57;;;;;;;1.40;1.10;;;24.10;34.10;;;;;;5052342;28;20176;-92
2022/04/02 10:06:38;;;;;;;2.13;1.47;;;23.60;34.30;;;;;;5053474;28;20494;-92
2022/04/02 10:09:08;;;;;;;2.20;1.40;;;23.50;34.50;;;;;;5053579;28;20183;-92
2022/04/02 10:11:39;;;;;;;2.87;1.40;;;23.20;34.70;;;;;;5048306;28;20196;-92
2022/04/02 10:14:06;;;;;;;1.63;1.30;;;22.90;35.00;;;;;;5046432;28;20172;-92
2022/04/02 10:16:32;;;;;;;1.90;1.30;;;22.50;35.30;;;;;;5047998;28;20238;-92
2022/04/02 10:19:00;;;;;;;2.00;1.30;;;22.30;35.60;;;;;;5048804;28;20168;-92
2022/04/02 10:21:30;;;;;;;1.97;1.40;;;22.00;35.80;;;;;;5047713;28;20516;-92
2022/04/02 10:24:21;;;;;;;1.47;1.37;;;21.70;36.00;;;;;;5047091;28;20181;-92
2022/04/02 10:26:57;;;;;;;2.00;1.20;;;21.50;36.20;;;;;;5036911;28;20499;-93
2022/04/02 10:29:51;;;;;;;1.57;1.23;;;21.30;36.40;;;;;;5047147;28;20486;-93
2022/04/02 10:32:20;;;;;;;2.30;1.30;;;21.20;36.40;;;;;;5045167;28;20307;-92
2022/04/02 10:34:45;;;;;;;1.53;1.30;;;21.30;36.40;;;;;;5047215;28;20250;-92
2022/04/02 10:37:16;;;;;;;1.30;1.20;;;21.30;36.40;;;;;;5048461;28;20388;-92
2022/04/02 10:39:53;;;;;;;2.30;1.37;;;21.40;36.20;;;;;;5049808;28;20172;-92
2022/04/02 10:42:24;;;;;;;1.70;1.30;;;21.90;35.90;;;;;;5051480;28;20232;-92
2022/04/02 10:45:06;;;;;;;1.97;1.23;;;22.30;35.40;;;;;;5049932;28;20231;-93
2022/04/02 10:47:38;;;;;;;1.90;1.47;;;22.80;35.00;;;;;;5051307;28;20177;-93
2022/04/02 10:50:06;;;;;;;1.57;1.27;;;23.20;34.70;;;;;;5050206;28;20213;-92
2022/04/02 10:52:34;;;;;;;2.27;1.40;;;23.50;34.60;;;;;;5050166;28;20217;-92
2022/04/02 10:55:01;;;;;;;2.73;1.30;;;23.90;34.20;;;;;;5050775;28;20572;-92
2022/04/02 10:57:32;;;;;;;1.63;1.23;;;24.00;33.90;;;;;;5051416;28;20183;-92
2022/04/02 11:00:09;;;;;;;2.40;1.47;;;24.10;33.80;;;;;;5050672;28;20175;-93
2022/04/02 11:02:42;;;;;;;1.73;1.20;;;23.80;33.80;;;;;;5049353;28;20190;-92
2022/04/02 11:05:16;;;;;;;2.03;1.50;;;24.10;33.80;;;;;;5050837;28;20247;-92
2022/04/02 11:07:49;;;;;;;1.43;1.20;;;24.20;33.60;;;;;;5050121;28;20175;-92
2022/04/02 11:10:19;;;;;;;1.37;1.27;;;24.10;33.50;;;;;;5050016;28;20626;-92
2022/04/02 11:12:48;;;;;;;2.97;1.40;;;23.90;33.60;;;;;;5049965;28;20207;-93
2022/04/02 11:15:21;;;;;;;1.87;1.50;;;23.80;33.80;;;;;;5050377;28;20172;-92
2022/04/02 11:17:58;;;;;;;1.80;1.40;;;23.70;33.90;;;;;;5049510;28;20175;-93
2022/04/02 11:20:32;;;;;;;1.67;1.30;;;23.60;33.90;;;;;;5049836;28;20168;-93
2022/04/02 11:23:24;;;;;;;1.60;1.50;;;23.40;34.10;;;;;;5054337;28;20184;-92
2022/04/02 11:26:01;;;;;;;1.30;1.20;;;23.30;34.30;;;;;;5053343;28;20281;-92
2022/04/02 11:28:42;;;;;;;1.53;1.30;;;23.00;34.50;;;;;;5050356;28;20309;-93
2022/04/02 11:31:11;;;;;;;2.47;1.30;;;22.70;34.60;;;;;;5050424;28;20271;-93
2022/04/02 11:33:52;;;;;;;2.00;1.50;;;22.60;34.90;;;;;;5050418;28;20248;-93
2022/04/02 11:36:35;;;;;;;1.47;1.30;;;22.40;35.00;;;;;;5055671;28;20179;-93
2022/04/02 11:39:03;;;;;;;1.87;1.30;;;22.30;35.10;;;;;;5051345;28;20183;-92
2022/04/02 11:41:41;;;;;;;1.40;1.27;;;22.10;35.30;;;;;;5049511;28;20191;-93
2022/04/02 11:44:11;;;;;;;1.47;1.20;;;22.00;35.40;;;;;;5048987;28;20481;-92
2022/04/02 11:46:59;;;;;;;1.70;1.33;;;21.90;35.50;;;;;;5049557;28;20709;-92
2022/04/02 11:49:40;;;;;;;1.30;1.17;;;21.80;35.60;;;;;;5048567;28;20180;-91
2022/04/02 11:52:05;;;;;;;1.77;1.20;;;21.80;35.70;;;;;;5048862;28;20312;-92
2022/04/02 11:54:41;;;;;;;1.40;1.13;;;21.70;35.70;;;;;;5048949;28;20256;-91
2022/04/02 11:57:11;;;;;;;1.43;1.13;;;21.80;35.70;;;;;;5048632;28;20520;-92
2022/04/02 11:59:48;;;;;;;2.00;1.40;;;22.00;35.60;;;;;;5048184;28;20172;-91
2022/04/02 12:02:39;;;;;;;2.00;1.30;;;22.30;35.40;;;;;;5049173;28;20176;-92
2022/04/02 12:05:07;;;;;;;1.43;1.30;;;22.50;35.10;;;;;;5048948;28;20171;-92
2022/04/02 12:08:04;;;;;;;1.60;1.20;;;22.70;34.90;;;;;;5048148;28;20331;-92
2022/04/02 12:10:32;;;;;;;1.50;1.40;;;23.00;34.70;;;;;;5049602;28;20249;-91
2022/04/02 12:12:59;;;;;;;2.97;1.40;;;23.40;34.40;;;;;;5049355;28;20222;-92
2022/04/02 12:15:26;;;;;;;1.40;1.20;;;23.60;34.20;;;;;;5048398;28;20171;-92
2022/04/02 12:17:59;;;;;;;1.47;1.37;;;24.00;34.00;;;;;;5047745;28;20182;-92
2022/04/02 12:20:29;;;;;;;1.60;1.30;;;24.00;33.80;;;;;;5048690;28;20178;-91
2022/04/02 12:23:16;;;;;;;2.30;1.40;;;24.00;33.90;;;;;;5048814;28;20230;-92
2022/04/02 12:25:54;;;;;;;1.93;1.40;;;24.20;33.70;;;;;;5048141;28;20562;-94
2022/04/02 12:28:21;;;;;;;1.57;1.40;;;24.10;33.80;;;;;;5048667;28;20179;-93
2022/04/02 12:30:52;;;;;;;1.63;1.20;;;24.00;33.70;;;;;;5048988;28;20230;-94
2022/04/02 12:33:22;;;;;;;1.60;1.50;;;23.90;33.90;;;;;;5049350;28;20323;-90
2022/04/02 12:36:09;;;;;;;1.50;1.40;;;23.80;34.00;;;;;;5048539;28;20185;-91
2022/04/02 12:38:39;;;;;;;2.50;1.50;;;23.70;34.10;;;;;;5048046;28;20190;-91
2022/04/02 12:41:22;;;;;;;3.00;1.40;;;23.70;34.10;;;;;;5047629;28;20282;-90
2022/04/02 12:43:49;;;;;;;1.50;1.40;;;23.50;34.20;;;;;;5046370;28;20184;-90
2022/04/02 12:46:23;;;;;;;1.93;1.50;;;23.30;34.40;;;;;;5048046;28;20374;-90
2022/04/02 12:48:49;;;;;;;2.83;1.60;;;23.10;34.50;;;;;;5048432;28;20451;-90
2022/04/02 12:51:16;;;;;;;1.93;1.60;;;22.90;34.80;;;;;;5048047;28;20187;-89
2022/04/02 12:53:44;;;;;;;2.20;1.50;;;22.70;34.90;;;;;;5047398;28;20187;-90
2022/04/02 12:56:26;;;;;;;1.97;1.60;;;22.60;35.10;;;;;;5047170;28;20600;-90
2022/04/02 12:58:53;;;;;;;2.03;1.43;;;22.30;35.40;;;;;;5047103;28;20208;-88
2022/04/02 13:01:25;;;;;;;2.20;1.40;;;22.00;35.70;;;;;;5047673;28;20164;-88
2022/04/02 13:04:08;;;;;;;3.20;1.63;;;21.60;36.10;;;;;;5047248;28;20553;-88
2022/04/02 13:06:39;;;;;;;4.50;1.60;;;21.30;36.40;;;;;;5047345;28;20235;-87
2022/04/02 13:09:19;;;;;;;1.60;1.30;;;21.00;36.80;;;;;;5046403;28;20250;-87
2022/04/02 13:12:02;;;;;;;2.60;1.43;;;20.60;37.20;;;;;;5046765;28;20363;-88